createdAt,value
2018-11-23T00:00:41.003Z,40.40
2018-11-23T00:03:09.120Z,42.17
2018-11-23T00:05:37.170Z,43.77
2018-11-23T00:08:05.307Z,41.73
2018-11-23T00:10:33.618Z,40.30
2018-11-23T00:13:01.707Z,40.77
2018-11-23T00:15:29.871Z,43.37
2018-11-23T00:17:57.967Z,43.77
2018-11-23T00:20:27.297Z,41.77
2018-11-23T00:22:55.369Z,43.10
2018-11-23T00:25:24.479Z,43.17
2018-11-23T00:27:53.014Z,45.13
2018-11-23T00:30:22.474Z,43.93
2018-11-23T00:32:50.914Z,42.20
2018-11-23T00:35:38.614Z,44.73
2018-11-23T00:38:06.736Z,43.37
2018-11-23T00:40:34.838Z,41.93
2018-11-23T00:43:02.884Z,42.17
2018-11-23T00:45:30.977Z,42.60
2018-11-23T00:47:59.634Z,42.00
2018-11-23T00:50:46.877Z,45.37
2018-11-23T00:53:14.960Z,39.97
2018-11-23T00:55:43.010Z,42.60
2018-11-23T00:58:11.110Z,41.63
2018-11-23T01:00:39.155Z,41.70
2018-11-23T01:03:07.246Z,43.27
2018-11-23T01:05:35.303Z,42.33
2018-11-23T01:08:03.367Z,40.90
2018-11-23T01:10:31.542Z,43.23
2018-11-23T01:12:59.751Z,41.73
2018-11-23T01:15:27.711Z,44.63
2018-11-23T01:17:55.717Z,42.03
2018-11-23T01:20:24.977Z,43.23
2018-11-23T01:22:53.547Z,41.27
2018-11-23T01:25:22.570Z,41.43
2018-11-23T01:27:51.569Z,44.20
2018-11-23T01:30:24.086Z,42.77
2018-11-23T01:32:52.152Z,42.87
2018-11-23T01:35:20.223Z,42.73
2018-11-23T01:37:48.279Z,43.70
2018-11-23T01:40:35.493Z,42.73
2018-11-23T01:43:03.551Z,40.77
2018-11-23T01:45:31.614Z,42.70
2018-11-23T01:47:59.653Z,44.50
2018-11-23T01:50:29.086Z,44.10
2018-11-23T01:52:57.312Z,42.27
2018-11-23T01:55:25.804Z,40.10
2018-11-23T01:57:53.893Z,43.23
2018-11-23T02:00:23.288Z,41.97
2018-11-23T02:02:52.258Z,42.90
2018-11-23T02:05:20.278Z,39.47
2018-11-23T02:07:48.373Z,43.03
2018-11-23T02:10:17.215Z,41.03
2018-11-23T02:12:45.318Z,41.60
2018-11-23T02:15:15.230Z,40.43
2018-11-23T02:17:43.436Z,42.47
2018-11-23T02:20:13.109Z,40.93
2018-11-23T02:22:41.199Z,39.23
2018-11-23T02:25:09.281Z,39.17
2018-11-23T02:27:37.306Z,39.03
2018-11-23T02:30:26.487Z,37.70
2018-11-23T02:32:54.511Z,36.97
2018-11-23T02:35:22.605Z,38.63
2018-11-23T02:37:50.644Z,39.50
2018-11-23T02:40:19.673Z,38.70
2018-11-23T02:42:47.841Z,37.03
2018-11-23T02:45:35.515Z,38.17
2018-11-23T02:48:03.593Z,37.20
2018-11-23T02:50:31.625Z,37.03
2018-11-23T02:52:59.717Z,37.27
2018-11-23T02:55:27.765Z,37.80
2018-11-23T02:57:55.877Z,36.27
2018-11-23T03:00:23.917Z,37.43
2018-11-23T03:02:52.028Z,36.07
2018-11-23T03:05:21.392Z,36.13
2018-11-23T03:07:49.459Z,37.07
2018-11-23T03:10:17.872Z,35.00
2018-11-23T03:12:46.773Z,33.53
2018-11-23T03:15:16.433Z,35.40
2018-11-23T03:17:45.186Z,34.77
2018-11-23T03:20:15.116Z,36.03
2018-11-23T03:22:43.182Z,37.57
2018-11-23T03:25:12.049Z,36.60
2018-11-23T03:27:40.108Z,35.90
2018-11-23T03:30:11.032Z,33.30
2018-11-23T03:32:39.274Z,37.77
2018-11-23T03:35:07.409Z,33.93
2018-11-23T03:37:35.489Z,34.37
2018-11-23T03:40:03.505Z,34.03
2018-11-23T03:42:31.589Z,34.63
2018-11-23T03:44:59.640Z,35.87
2018-11-23T03:47:27.922Z,35.50
2018-11-23T03:49:56.008Z,33.77
2018-11-23T03:52:24.109Z,33.63
2018-11-23T03:54:52.192Z,35.33
2018-11-23T03:57:20.244Z,34.13
2018-11-23T03:59:48.328Z,33.70
2018-11-23T04:02:16.571Z,35.43
2018-11-23T04:04:44.652Z,35.60
2018-11-23T04:07:12.700Z,34.73
2018-11-23T04:09:40.776Z,34.70
2018-11-23T04:12:08.814Z,35.50
2018-11-23T04:14:36.876Z,33.40
2018-11-23T04:17:05.098Z,33.60
2018-11-23T04:19:33.159Z,34.83
2018-11-23T04:22:01.220Z,35.20
2018-11-23T04:24:29.302Z,36.67
2018-11-23T04:26:57.314Z,34.57
2018-11-23T04:29:25.383Z,34.30
2018-11-23T04:31:53.582Z,36.47
2018-11-23T04:34:21.663Z,35.13
2018-11-23T04:36:49.709Z,34.27
2018-11-23T04:39:17.734Z,34.00
2018-11-23T04:41:46.450Z,37.10
2018-11-23T04:44:13.858Z,35.53
2018-11-23T04:46:41.930Z,36.37
2018-11-23T04:49:09.974Z,37.70
2018-11-23T04:51:38.023Z,35.40
2018-11-23T04:54:06.287Z,37.70
2018-11-23T04:56:34.328Z,37.07
2018-11-23T04:59:02.427Z,36.50
2018-11-23T05:01:30.466Z,35.73
2018-11-23T05:03:58.514Z,37.43
2018-11-23T05:06:26.571Z,36.53
2018-11-23T05:08:54.590Z,35.87
2018-11-23T05:11:22.683Z,36.07
2018-11-23T05:13:50.725Z,33.30
2018-11-23T05:16:18.794Z,34.13
2018-11-23T05:18:46.860Z,35.90
2018-11-23T05:21:14.925Z,39.03
2018-11-23T05:23:42.991Z,35.60
2018-11-23T05:26:11.014Z,38.33
2018-11-23T05:28:39.077Z,38.57
2018-11-23T05:31:07.115Z,40.00
2018-11-23T05:33:35.231Z,38.03
2018-11-23T05:36:03.275Z,36.60
2018-11-23T05:38:31.359Z,38.73
2018-11-23T05:40:59.392Z,36.57
2018-11-23T05:43:27.497Z,39.97
2018-11-23T05:45:55.564Z,37.03
2018-11-23T05:48:26.951Z,36.10
2018-11-23T05:50:51.710Z,37.33
2018-11-23T05:53:19.795Z,38.60
2018-11-23T05:55:47.823Z,37.37
2018-11-23T05:58:15.935Z,37.63
2018-11-23T06:00:43.972Z,34.97
2018-11-23T06:03:12.579Z,38.23
2018-11-23T06:05:40.559Z,35.40
2018-11-23T06:08:08.645Z,38.23
2018-11-23T06:10:36.744Z,37.27
2018-11-23T06:13:04.785Z,36.33
2018-11-23T06:15:32.875Z,36.87
2018-11-23T06:18:00.969Z,36.33
2018-11-23T06:20:29.024Z,36.40
2018-11-23T06:22:57.129Z,39.73
2018-11-23T06:25:45.468Z,38.60
2018-11-23T06:28:13.582Z,36.17
2018-11-23T06:30:41.622Z,37.20
2018-11-23T06:33:32.996Z,37.60
2018-11-23T06:36:01.124Z,36.80
2018-11-23T06:38:29.260Z,36.40
2018-11-23T06:40:57.334Z,37.90
2018-11-23T06:43:25.450Z,39.53
2018-11-23T06:45:53.532Z,38.00
2018-11-23T06:48:21.634Z,35.53
2018-11-23T06:50:49.690Z,36.73
2018-11-23T06:53:17.739Z,38.13
2018-11-23T06:55:45.819Z,37.83
2018-11-23T06:58:13.880Z,36.33
2018-11-23T07:00:41.952Z,36.97
2018-11-23T07:03:10.034Z,37.23
2018-11-23T07:05:38.118Z,35.87
2018-11-23T07:08:07.046Z,37.07
2018-11-23T07:10:35.116Z,37.43
2018-11-23T07:13:03.172Z,37.20
2018-11-23T07:15:31.250Z,37.70
2018-11-23T07:17:59.345Z,38.20
2018-11-23T07:20:27.405Z,37.47
2018-11-23T07:22:55.461Z,35.63
2018-11-23T07:25:23.473Z,36.30
2018-11-23T07:27:51.566Z,35.90
2018-11-23T07:30:21.169Z,35.93
2018-11-23T07:32:49.242Z,35.37
2018-11-23T07:35:17.303Z,35.63
2018-11-23T07:37:45.457Z,32.70
2018-11-23T07:40:52.565Z,35.50
2018-11-23T07:43:20.663Z,35.27
2018-11-23T07:45:48.960Z,36.83
2018-11-23T07:48:17.031Z,37.47
2018-11-23T07:50:45.087Z,36.20
2018-11-23T07:53:13.209Z,38.20
2018-11-23T07:55:41.289Z,38.80
2018-11-23T07:58:09.924Z,38.07
2018-11-23T08:00:37.978Z,36.70
2018-11-23T08:03:06.167Z,37.60
2018-11-23T08:05:34.207Z,34.87
2018-11-23T08:08:02.266Z,37.07
2018-11-23T08:10:29.474Z,35.00
2018-11-23T08:12:57.498Z,36.40
2018-11-23T08:15:26.706Z,36.87
2018-11-23T08:17:54.772Z,36.87
2018-11-23T08:20:23.881Z,36.37
2018-11-23T08:22:51.964Z,35.93
2018-11-23T08:25:21.262Z,36.07
2018-11-23T08:27:50.454Z,35.67
2018-11-23T08:30:20.752Z,35.50
2018-11-23T08:32:48.810Z,37.37
2018-11-23T08:35:16.868Z,35.73
2018-11-23T08:37:44.996Z,35.30
2018-11-23T08:40:32.243Z,33.70
2018-11-23T08:43:00.356Z,35.73
2018-11-23T08:45:28.410Z,35.33
2018-11-23T08:47:56.512Z,34.20
2018-11-23T08:50:28.802Z,34.70
2018-11-23T08:52:56.896Z,36.83
2018-11-23T08:58:12.942Z,35.30
2018-11-23T09:00:41.037Z,34.67
2018-11-23T09:03:09.111Z,36.27
2018-11-23T09:05:37.191Z,35.63
2018-11-23T09:08:05.632Z,36.27
2018-11-23T09:10:33.724Z,36.10
2018-11-23T09:13:03.286Z,35.20
2018-11-23T09:15:31.398Z,34.93
2018-11-23T09:17:59.476Z,34.93
2018-11-23T09:20:27.519Z,35.97
2018-11-23T09:22:55.594Z,33.33
2018-11-23T09:25:24.075Z,33.97
2018-11-23T09:27:52.349Z,33.30
2018-11-23T09:30:21.668Z,34.00
2018-11-23T09:32:50.560Z,34.37
2018-11-23T09:35:18.685Z,35.70
2018-11-23T09:37:47.219Z,34.07
2018-11-23T09:40:16.666Z,34.07
2018-11-23T09:42:44.743Z,34.93
2018-11-23T09:45:15.174Z,34.90
2018-11-23T09:47:44.084Z,36.53
2018-11-23T09:50:13.557Z,35.57
2018-11-23T09:52:41.966Z,35.53
2018-11-23T09:55:10.298Z,33.83
2018-11-23T09:57:38.732Z,33.50
2018-11-23T10:00:27.551Z,33.40
2018-11-23T10:02:56.479Z,32.13
2018-11-23T10:05:25.346Z,34.17
2018-11-23T10:07:54.988Z,34.13
2018-11-23T10:10:23.850Z,33.00
2018-11-23T10:12:52.282Z,34.03
2018-11-23T10:15:21.020Z,31.83
2018-11-23T10:17:49.108Z,32.53
2018-11-23T10:20:36.532Z,31.47
2018-11-23T10:23:04.799Z,31.23
2018-11-23T10:25:34.224Z,32.03
2018-11-23T10:28:02.268Z,33.30
2018-11-23T10:30:31.629Z,33.90
2018-11-23T10:33:01.022Z,32.70
2018-11-23T10:35:29.313Z,33.60
2018-11-23T10:38:16.496Z,33.97
2018-11-23T10:40:44.615Z,33.53
2018-11-23T10:43:12.657Z,32.07
2018-11-23T10:45:40.683Z,32.83
2018-11-23T10:48:09.237Z,34.10
2018-11-23T10:50:38.828Z,33.33
2018-11-23T10:53:07.251Z,31.83
2018-11-23T10:55:36.120Z,32.73
2018-11-23T10:58:04.339Z,32.60
2018-11-23T11:00:51.587Z,33.57
2018-11-23T11:03:38.906Z,32.93
2018-11-23T11:06:26.991Z,33.50
2018-11-23T11:08:56.453Z,32.60
2018-11-23T11:11:24.489Z,34.63
2018-11-23T11:13:52.575Z,34.30
2018-11-23T11:16:20.652Z,34.70
2018-11-23T11:18:48.678Z,33.83
2018-11-23T11:21:16.780Z,35.27
2018-11-23T11:23:44.806Z,34.47
2018-11-23T11:26:12.887Z,33.93
2018-11-23T11:28:40.919Z,33.80
2018-11-23T11:31:13.064Z,33.80
2018-11-23T11:33:41.101Z,33.10
2018-11-23T11:36:09.216Z,33.20
2018-11-23T11:38:37.277Z,30.97
2018-11-23T11:41:05.358Z,33.63
2018-11-23T11:43:33.412Z,33.03
2018-11-23T11:46:01.473Z,33.10
2018-11-23T11:48:29.552Z,34.53
2018-11-23T11:50:57.628Z,32.70
2018-11-23T11:57:33.087Z,31.33
2018-11-23T12:00:00.571Z,31.57
2018-11-23T12:02:28.053Z,33.70
2018-11-23T12:04:55.999Z,31.57
2018-11-23T12:07:23.932Z,30.67
2018-11-23T12:09:51.636Z,32.50
2018-11-23T12:12:18.971Z,32.23
2018-11-23T12:14:46.318Z,31.40
2018-11-23T12:17:13.815Z,30.40
2018-11-23T12:19:41.259Z,30.37
2018-11-23T12:22:08.610Z,31.47
2018-11-23T12:24:36.042Z,32.63
2018-11-23T12:27:03.355Z,30.20
2018-11-23T12:29:30.732Z,30.83
2018-11-23T12:31:58.156Z,32.00
2018-11-23T12:34:25.584Z,32.90
2018-11-23T12:36:52.964Z,31.87
2018-11-23T12:39:20.327Z,32.67
2018-11-23T12:41:47.674Z,31.20
2018-11-23T12:44:15.131Z,32.80
2018-11-23T12:46:42.520Z,32.00
2018-11-23T12:49:09.976Z,31.53
2018-11-23T12:51:37.392Z,32.37
2018-11-23T12:54:05.843Z,32.93
2018-11-23T12:56:33.278Z,32.73
2018-11-23T12:59:00.750Z,31.47
2018-11-23T13:01:28.218Z,31.67
2018-11-23T13:03:55.653Z,30.33
2018-11-23T13:06:23.117Z,32.93
2018-11-23T13:08:50.479Z,31.13
2018-11-23T13:11:17.989Z,31.87
2018-11-23T13:13:45.571Z,30.00
2018-11-23T13:16:12.923Z,28.10
2018-11-23T13:18:40.484Z,29.30
2018-11-23T13:21:08.005Z,32.50
2018-11-23T13:23:35.692Z,32.67
2018-11-23T13:26:03.070Z,33.17
2018-11-23T13:28:30.397Z,31.53
2018-11-23T13:30:57.769Z,33.10
2018-11-23T13:33:25.193Z,30.77
2018-11-23T13:35:52.568Z,30.53
2018-11-23T13:38:19.947Z,30.57
2018-11-23T13:40:47.299Z,29.37
2018-11-23T13:43:14.667Z,30.07
2018-11-23T13:45:42.028Z,31.60
2018-11-23T13:48:09.462Z,29.03
2018-11-23T13:50:36.895Z,29.63
2018-11-23T13:53:04.338Z,30.87
2018-11-23T13:55:31.680Z,31.13
2018-11-23T13:57:59.179Z,30.47
2018-11-23T14:00:27.936Z,30.43
2018-11-23T14:02:55.321Z,30.07
2018-11-23T14:05:24.092Z,29.27
2018-11-23T14:07:52.922Z,30.50
2018-11-23T14:10:21.549Z,30.77
2018-11-23T14:12:49.192Z,29.67
2018-11-23T14:15:19.099Z,28.27
2018-11-23T14:17:47.412Z,30.40
2018-11-23T14:20:15.760Z,30.90
2018-11-23T14:22:43.256Z,30.93
2018-11-23T14:25:13.040Z,30.87
2018-11-23T14:27:41.340Z,30.37
2018-11-23T14:30:13.299Z,32.00
2018-11-23T14:32:40.843Z,30.73
2018-11-23T14:35:10.725Z,31.23
2018-11-23T14:37:38.870Z,31.23
2018-11-23T14:40:06.989Z,30.53
2018-11-23T14:42:34.482Z,31.10
2018-11-23T14:45:01.955Z,29.83
2018-11-23T14:47:29.663Z,30.60
2018-11-23T14:49:57.049Z,28.23
2018-11-23T14:52:24.505Z,32.97
2018-11-23T14:54:52.189Z,31.47
2018-11-23T14:57:19.852Z,29.23
2018-11-23T14:59:47.301Z,31.03
2018-11-23T15:02:15.446Z,30.10
2018-11-23T15:04:42.932Z,31.97
2018-11-23T15:07:10.389Z,28.83
2018-11-23T15:09:37.794Z,30.97
2018-11-23T15:12:05.318Z,30.03
2018-11-23T15:14:32.729Z,32.97
2018-11-23T15:17:00.081Z,33.93
2018-11-23T15:19:27.632Z,30.63
2018-11-23T15:21:54.955Z,30.00
2018-11-23T15:24:22.360Z,30.97
2018-11-23T15:26:49.791Z,28.17
2018-11-23T15:29:17.136Z,28.80
2018-11-23T15:31:44.504Z,30.37
2018-11-23T15:34:12.044Z,31.10
2018-11-23T15:36:39.492Z,32.13
2018-11-23T15:39:09.346Z,32.23
2018-11-23T15:41:37.376Z,32.80
2018-11-23T15:44:05.429Z,30.50
2018-11-23T15:46:32.798Z,30.87
2018-11-23T15:49:00.198Z,32.53
2018-11-23T15:51:27.540Z,32.90
2018-11-23T15:53:55.145Z,32.50
2018-11-23T15:56:23.070Z,32.20
2018-11-23T15:58:50.391Z,29.73
2018-11-23T16:01:17.919Z,28.33
2018-11-23T16:03:45.400Z,29.63
2018-11-23T16:06:12.905Z,28.20
2018-11-23T16:08:40.338Z,28.87
2018-11-23T16:11:07.891Z,29.97
2018-11-23T16:13:35.963Z,30.67
2018-11-23T16:16:03.295Z,31.37
2018-11-23T16:18:30.713Z,32.20
2018-11-23T16:20:58.319Z,31.80
2018-11-23T16:23:25.781Z,30.93
2018-11-23T16:25:53.199Z,30.10
2018-11-23T16:28:21.189Z,29.87
2018-11-23T16:30:49.921Z,30.50
2018-11-23T16:33:19.266Z,34.50
2018-11-23T16:35:46.719Z,31.43
2018-11-23T16:38:16.661Z,31.30
2018-11-23T16:40:46.519Z,30.13
2018-11-23T16:43:15.191Z,28.10
2018-11-23T16:45:43.175Z,31.60
2018-11-23T16:48:11.730Z,29.93
2018-11-23T16:50:39.243Z,30.77
2018-11-23T16:53:06.716Z,29.33
2018-11-23T16:55:34.497Z,27.83
2018-11-23T16:58:06.431Z,29.57
2018-11-23T17:00:35.362Z,28.13
2018-11-23T17:03:05.132Z,30.33
2018-11-23T17:05:34.217Z,28.80
2018-11-23T17:08:01.722Z,30.70
2018-11-23T17:10:29.153Z,29.93
2018-11-23T17:12:56.680Z,30.00
2018-11-23T17:15:26.115Z,30.07
2018-11-23T17:17:54.140Z,30.47
2018-11-23T17:20:23.057Z,31.10
2018-11-23T17:22:51.572Z,29.10
2018-11-23T17:25:20.296Z,28.43
2018-11-23T17:27:48.482Z,29.90
2018-11-23T17:30:18.914Z,31.30
2018-11-23T17:32:46.442Z,31.27
2018-11-23T17:35:14.458Z,33.13
2018-11-23T17:37:42.272Z,34.27
2018-11-23T17:40:11.362Z,34.00
2018-11-23T17:42:38.779Z,33.27
2018-11-23T17:45:09.297Z,33.83
2018-11-23T17:47:36.766Z,33.50
2018-11-23T17:50:06.143Z,33.73
2018-11-23T17:52:33.460Z,34.43
2018-11-23T17:55:00.796Z,35.70
2018-11-23T17:57:28.254Z,34.43
2018-11-23T17:59:55.807Z,33.90
2018-11-23T18:02:25.603Z,32.57
2018-11-23T18:04:53.043Z,37.80
2018-11-23T18:07:20.461Z,36.00
2018-11-23T18:09:47.863Z,36.60
2018-11-23T18:12:15.791Z,35.63
2018-11-23T18:14:43.193Z,35.40
2018-11-23T18:17:11.724Z,35.10
2018-11-23T18:19:39.135Z,34.90
2018-11-23T18:22:07.407Z,33.00
2018-11-23T18:24:34.936Z,33.60
2018-11-23T18:27:03.020Z,32.33
2018-11-23T18:29:30.624Z,33.53
2018-11-23T18:31:58.104Z,32.57
2018-11-23T18:34:25.576Z,32.53
2018-11-23T18:36:53.095Z,31.33
2018-11-23T18:39:20.420Z,31.60
2018-11-23T18:41:47.776Z,31.37
2018-11-23T18:44:15.274Z,31.20
2018-11-23T18:46:42.661Z,30.80
2018-11-23T18:49:10.145Z,31.40
2018-11-23T18:51:37.586Z,30.60
2018-11-23T18:54:05.241Z,31.30
2018-11-23T18:56:32.619Z,31.40
2018-11-23T18:59:00.793Z,32.30
2018-11-23T19:01:28.302Z,31.10
2018-11-23T19:03:55.689Z,30.73
2018-11-23T19:06:23.129Z,30.43
2018-11-23T19:08:50.696Z,29.87
2018-11-23T19:11:20.183Z,30.40
2018-11-23T19:13:47.591Z,28.53
2018-11-23T19:16:14.967Z,30.43
2018-11-23T19:18:42.493Z,31.93
2018-11-23T19:21:09.901Z,31.53
2018-11-23T19:23:37.519Z,32.73
2018-11-23T19:26:05.344Z,30.33
2018-11-23T19:28:32.691Z,30.67
2018-11-23T19:31:00.054Z,29.27
2018-11-23T19:33:27.622Z,28.80
2018-11-23T19:35:54.983Z,27.03
2018-11-23T19:38:22.321Z,28.03
2018-11-23T19:40:49.772Z,26.77
2018-11-23T19:43:17.303Z,26.73
2018-11-23T19:45:45.552Z,27.87
2018-11-23T19:48:12.917Z,26.93
2018-11-23T19:50:40.391Z,28.03
2018-11-23T19:53:07.821Z,33.30
2018-11-23T19:55:35.350Z,33.40
2018-11-23T19:58:02.791Z,34.93
2018-11-23T20:00:30.191Z,35.90
2018-11-23T20:02:57.564Z,36.90
2018-11-23T20:05:24.939Z,36.57
2018-11-23T20:07:54.716Z,38.27
2018-11-23T20:10:22.910Z,36.23
2018-11-23T20:12:51.724Z,35.47
2018-11-23T20:15:19.270Z,32.60
2018-11-23T20:17:47.351Z,34.03
2018-11-23T20:20:15.794Z,33.30
2018-11-23T20:22:43.678Z,31.93
2018-11-23T20:25:13.414Z,33.93
2018-11-23T20:27:40.872Z,40.80
2018-11-23T20:30:12.739Z,39.67
2018-11-23T20:32:40.122Z,39.93
2018-11-23T20:35:10.417Z,40.10
2018-11-23T20:37:37.917Z,38.23
2018-11-23T20:40:11.241Z,34.53
2018-11-23T20:42:38.959Z,39.23
2018-11-23T20:45:12.640Z,41.13
2018-11-23T20:47:40.241Z,44.20
2018-11-23T20:50:10.343Z,39.30
2018-11-23T20:52:38.277Z,37.80
2018-11-23T20:55:12.124Z,36.33
2018-11-23T20:57:39.620Z,35.67
2018-11-23T21:00:12.349Z,34.60
2018-11-23T21:02:39.881Z,35.47
2018-11-23T21:05:10.482Z,34.73
2018-11-23T21:07:38.127Z,34.00
2018-11-23T21:10:36.944Z,33.73
2018-11-23T21:13:04.657Z,33.17
2018-11-23T21:15:33.965Z,30.97
2018-11-23T21:18:02.916Z,29.07
2018-11-23T21:20:31.396Z,25.87
2018-11-23T21:22:58.864Z,25.10
2018-11-23T21:25:26.362Z,24.30
2018-11-23T21:27:54.029Z,23.90
2018-11-23T21:30:22.654Z,23.00
2018-11-23T21:32:50.685Z,26.03
2018-11-23T21:35:18.524Z,25.73
2018-11-23T21:37:45.858Z,25.30
2018-11-23T21:40:15.385Z,25.63
2018-11-23T21:42:42.822Z,25.10
2018-11-23T21:45:15.456Z,25.20
2018-11-23T21:47:43.490Z,25.07
2018-11-23T21:50:12.155Z,26.37
2018-11-23T21:52:39.572Z,24.70
2018-11-23T21:55:09.100Z,25.17
2018-11-23T21:57:36.791Z,27.63
2018-11-23T22:00:05.337Z,25.23
2018-11-23T22:02:32.673Z,24.10
2018-11-23T22:05:00.081Z,24.63
2018-11-23T22:07:27.565Z,24.60
2018-11-23T22:09:55.049Z,24.70
2018-11-23T22:12:22.425Z,25.17
2018-11-23T22:14:49.885Z,25.23
2018-11-23T22:17:17.436Z,25.07
2018-11-23T22:19:44.763Z,23.70
2018-11-23T22:22:12.136Z,25.33
2018-11-23T22:24:39.649Z,25.80
2018-11-23T22:27:07.729Z,27.27
2018-11-23T22:29:35.231Z,27.07
2018-11-23T22:32:02.746Z,26.87
2018-11-23T22:34:30.165Z,22.87
2018-11-23T22:36:57.644Z,24.97
2018-11-23T22:39:25.061Z,25.30
2018-11-23T22:41:52.450Z,23.43
2018-11-23T22:44:19.982Z,23.67
2018-11-23T22:46:48.145Z,23.67
2018-11-23T22:49:15.672Z,23.03
2018-11-23T22:51:43.129Z,23.37
2018-11-23T22:54:10.459Z,22.57
2018-11-23T22:56:37.838Z,22.73
2018-11-23T22:59:05.575Z,21.40
2018-11-23T23:01:32.972Z,22.00
2018-11-23T23:04:00.366Z,21.10
2018-11-23T23:06:27.742Z,22.43
2018-11-23T23:08:55.104Z,22.37
2018-11-23T23:11:22.486Z,20.93
2018-11-23T23:13:49.936Z,20.43
2018-11-23T23:16:17.286Z,21.50
2018-11-23T23:18:45.344Z,21.20
2018-11-23T23:21:12.808Z,19.70
2018-11-23T23:23:40.242Z,22.53
2018-11-23T23:26:07.602Z,21.13
2018-11-23T23:28:35.037Z,21.97
2018-11-23T23:31:02.469Z,21.40
2018-11-23T23:33:29.831Z,21.33
2018-11-23T23:35:57.310Z,20.93
2018-11-23T23:38:24.973Z,20.50
2018-11-23T23:40:52.407Z,21.07
2018-11-23T23:43:19.833Z,21.20
2018-11-23T23:45:47.175Z,21.23
2018-11-23T23:48:14.581Z,19.73
2018-11-23T23:50:41.984Z,20.73
2018-11-23T23:53:09.468Z,22.17
2018-11-23T23:55:36.940Z,20.90
2018-11-23T23:58:05.067Z,21.27
